Strona główna
METAR-TAF:

Lotnisko :

Albert, Francja

Szerokość geograficzna: 49-58-21N, Długość geograficzna: 002-41-29E, wysokość: 111 m

Aktualna obserwacja pogody

Raport powstał 40 minut temu, godzina 10:30 UTC
Wiatr 10 kt od zachodnio-południowy zachód
Temperatura 17°C
Wilgotność 82%
Ciśnienie 1019 hPa
Widzialność 10 km lub więcej
Zachmurzenie całkowite na wysokości 1500 ft

METAR: LFAQ 271030Z AUTO 24010KT 9999 OVC015 17/14 Q1019 TEMPO 3000 DZ OVC005

czas: 13:10 (11:10 UTC)

Prognoza

Raport powstał 3 godziny i 10 minut temu, godzina 08:00 UTC
Prognoza ważna od 27 godzina 09 UTC do 27 godzina 18 UTC
Wiatr 12 kt od południowy zachód
Widzialność 10 km lub więcej
Zachmurzenie całkowite na wysokości 1100 ft
Przejściowo
od 27 godzina 09 UTC do 27 godzina 12 UTC
Widzialność: 3000 m
Zachmurzenie całkowite na wysokości 500 ft
mżawka
Stopniowe zmiany
od 27 godzina 12 UTC do 27 godzina 15 UTC
Rozproszone chmury na wysokości 2000 ft

TAF: LFAQ 270800Z 2709/2718 23012KT 9999 OVC011 TEMPO 2709/2712 3000 DZ OVC005 BECMG 2712/2715 SCT020

METAR-TAF

Obserwacja i prognoza pogody dla ponad 4000 lotnisk (raport METAR i TAF).

Dostępne stacje oznaczono żółtymi i czerwonymi punktami na mapie.

Najedź kursorem aby zobaczyć nazwę stacji.

Kliknij aby zobaczyć obserwacje i prognozy pogody.

Aby zmienić mapę: kliknij na zielony przycisk z czarnym krzyżykiem, aby powiększyć; na zielony przycisk z myślnikiem, aby pomniejszyć; na zielone strzałki, aby przejść do map sąsiednich.


METAR-TAF: